createdAt,value
2023-01-20T00:01:28.203Z,-0.94
2023-01-20T00:03:58.740Z,-0.97
2023-01-20T00:06:29.900Z,-1.54
2023-01-20T00:09:00.532Z,-1.35
2023-01-20T00:11:28.423Z,-0.97
2023-01-20T00:14:00.160Z,-1.63
2023-01-20T00:16:27.189Z,-1.02
2023-01-20T00:18:54.492Z,-1.21
2023-01-20T00:21:21.698Z,-1.35
2023-01-20T00:23:49.151Z,-1.26
2023-01-20T00:26:19.372Z,-1.68
2023-01-20T00:28:46.571Z,-1.33
2023-01-20T00:31:42.908Z,-1.31
2023-01-20T00:34:09.999Z,-1.60
2023-01-20T00:36:36.526Z,-1.35
2023-01-20T00:39:04.077Z,-1.56
2023-01-20T00:41:32.317Z,-1.70
2023-01-20T00:43:59.187Z,-1.91
2023-01-20T00:46:25.967Z,-1.64
2023-01-20T00:48:52.554Z,-1.85
2023-01-20T00:51:19.061Z,-1.78
2023-01-20T00:53:45.631Z,-1.59
2023-01-20T00:56:12.112Z,-1.59
2023-01-20T00:58:38.884Z,-1.91
2023-01-20T01:01:05.694Z,-1.93
2023-01-20T01:03:32.325Z,-1.60
2023-01-20T01:06:18.519Z,-1.96
2023-01-20T01:08:45.567Z,-2.05
2023-01-20T01:11:13.023Z,-1.77
2023-01-20T01:13:39.735Z,-2.87
2023-01-20T01:16:12.520Z,-2.02
2023-01-20T01:18:39.718Z,-1.97
2023-01-20T01:21:08.716Z,-1.86
2023-01-20T01:23:35.325Z,-2.02
2023-01-20T01:26:01.851Z,-2.34
2023-01-20T01:28:28.325Z,-1.84
2023-01-20T01:30:54.950Z,-1.83
2023-01-20T01:33:22.056Z,-2.20
2023-01-20T01:35:59.801Z,-2.23
2023-01-20T01:38:27.371Z,-1.91
2023-01-20T01:40:55.472Z,-1.93
2023-01-20T01:43:34.326Z,-2.09
2023-01-20T01:46:01.060Z,-2.38
2023-01-20T01:48:39.063Z,-2.19
2023-01-20T01:51:19.458Z,-2.11
2023-01-20T01:53:53.806Z,-2.56
2023-01-20T01:56:25.967Z,-2.67
2023-01-20T01:58:57.068Z,-2.68
2023-01-20T02:01:24.581Z,-2.40
2023-01-20T02:04:02.517Z,-2.22
2023-01-20T02:06:33.401Z,-2.40
2023-01-20T02:09:02.582Z,-2.26
2023-01-20T02:11:31.495Z,-2.34
2023-01-20T02:13:59.229Z,-2.51
2023-01-20T02:16:42.911Z,-2.66
2023-01-20T02:19:39.739Z,-2.60
2023-01-20T02:22:25.880Z,-2.60
2023-01-20T02:25:20.301Z,-2.51
2023-01-20T02:28:28.931Z,-2.74
2023-01-20T02:31:20.919Z,-2.85
2023-01-20T02:34:00.840Z,-2.90
2023-01-20T02:36:30.500Z,-2.62
2023-01-20T02:39:07.655Z,-3.44
2023-01-20T02:41:58.591Z,-3.03
2023-01-20T02:44:30.159Z,-2.64
2023-01-20T02:47:06.428Z,-3.06
2023-01-20T02:49:39.385Z,-3.22
2023-01-20T02:52:08.570Z,-2.69
2023-01-20T02:54:39.637Z,-2.61
2023-01-20T02:57:09.221Z,-2.95
2023-01-20T02:59:41.973Z,-2.92
2023-01-20T03:02:14.323Z,-2.89
2023-01-20T03:04:47.796Z,-2.62
2023-01-20T03:07:15.775Z,-3.15
2023-01-20T03:09:47.586Z,-2.69
2023-01-20T03:12:18.516Z,-2.71
2023-01-20T03:14:45.191Z,-2.71
2023-01-20T03:17:11.808Z,-2.80
2023-01-20T03:19:38.334Z,-3.00
2023-01-20T03:22:05.093Z,-2.83
2023-01-20T03:24:36.032Z,-2.84
2023-01-20T03:27:02.653Z,-3.44
2023-01-20T03:29:30.599Z,-3.34
2023-01-20T03:32:01.635Z,-3.02
2023-01-20T03:34:32.545Z,-2.96
2023-01-20T03:37:00.820Z,-3.37
2023-01-20T03:39:28.349Z,-4.35
2023-01-20T03:42:13.923Z,-3.27
2023-01-20T03:45:31.165Z,-3.43
2023-01-20T03:48:08.715Z,-3.48
2023-01-20T03:50:47.763Z,-3.42
2023-01-20T03:53:37.388Z,-3.25
2023-01-20T03:56:09.107Z,-3.22
2023-01-20T03:58:40.855Z,-3.43
2023-01-20T04:01:17.910Z,-3.39
2023-01-20T04:03:49.102Z,-3.72
2023-01-20T04:06:18.014Z,-3.35
2023-01-20T04:08:51.310Z,-3.33
2023-01-20T04:11:18.041Z,-3.75
2023-01-20T04:13:44.754Z,-3.72
2023-01-20T04:16:15.715Z,-3.43
2023-01-20T04:18:45.532Z,-3.39
2023-01-20T04:21:29.842Z,-3.84
2023-01-20T04:24:02.973Z,-3.55
2023-01-20T04:26:29.502Z,-3.49
2023-01-20T04:28:56.184Z,-3.57
2023-01-20T04:31:30.624Z,-3.53
2023-01-20T04:33:57.984Z,-3.94
2023-01-20T04:36:24.851Z,-3.60
2023-01-20T04:38:51.473Z,-3.41
2023-01-20T04:41:18.176Z,-4.46
2023-01-20T04:43:45.658Z,-3.43
2023-01-20T04:46:13.448Z,-3.80
2023-01-20T04:48:39.959Z,-3.79
2023-01-20T04:51:07.765Z,-4.44
2023-01-20T04:53:34.856Z,-4.51
2023-01-20T04:56:01.402Z,-4.52
2023-01-20T04:58:27.974Z,-4.25
2023-01-20T05:00:54.774Z,-3.90
2023-01-20T05:03:21.488Z,-3.99
2023-01-20T05:05:54.815Z,-4.37
2023-01-20T05:08:22.101Z,-3.81
2023-01-20T05:10:49.523Z,-4.42
2023-01-20T05:13:16.514Z,-4.32
2023-01-20T05:15:44.480Z,-3.64
2023-01-20T05:18:11.392Z,-3.69
2023-01-20T05:20:37.942Z,-3.90
2023-01-20T05:23:05.175Z,-3.70
2023-01-20T05:25:31.728Z,-3.76
2023-01-20T05:27:59.640Z,-4.34
2023-01-20T05:30:26.263Z,-4.10
2023-01-20T05:32:52.805Z,-3.81
2023-01-20T05:35:19.858Z,-3.66
2023-01-20T05:37:46.331Z,-3.59
2023-01-20T05:40:13.707Z,-3.82
2023-01-20T05:42:40.347Z,-3.74
2023-01-20T05:45:07.412Z,-3.78
2023-01-20T05:47:33.896Z,-3.75
2023-01-20T05:50:01.668Z,-3.63
2023-01-20T05:52:28.108Z,-3.78
2023-01-20T05:54:54.656Z,-4.09
2023-01-20T05:57:24.250Z,-4.37
2023-01-20T05:59:52.337Z,-3.99
2023-01-20T06:02:21.577Z,-1.29
2023-01-20T06:04:49.711Z,0.92
2023-01-20T06:07:16.194Z,2.08
2023-01-20T06:09:42.777Z,2.83
2023-01-20T06:12:10.454Z,3.32
2023-01-20T06:14:36.971Z,2.80
2023-01-20T06:17:04.214Z,1.64
2023-01-20T06:19:31.959Z,0.53
2023-01-20T06:21:59.704Z,-0.48
2023-01-20T06:24:26.175Z,-1.12
2023-01-20T06:26:54.587Z,-1.41
2023-01-20T06:29:21.533Z,-2.19
2023-01-20T06:32:15.640Z,-2.04
2023-01-20T06:34:43.272Z,-2.67
2023-01-20T06:37:11.268Z,-2.57
2023-01-20T06:39:43.472Z,-3.04
2023-01-20T06:42:11.569Z,-2.75
2023-01-20T06:44:39.248Z,-3.04
2023-01-20T06:47:07.792Z,-3.34
2023-01-20T06:49:35.721Z,-2.88
2023-01-20T06:52:02.899Z,-2.89
2023-01-20T06:54:30.968Z,-3.15
2023-01-20T06:56:58.728Z,-3.25
2023-01-20T06:59:27.662Z,-3.51
2023-01-20T07:01:54.421Z,-3.17
2023-01-20T07:04:21.320Z,-3.12
2023-01-20T07:06:50.760Z,-3.13
2023-01-20T07:09:18.336Z,-3.46
2023-01-20T07:11:46.198Z,-3.11
2023-01-20T07:14:14.806Z,-3.58
2023-01-20T07:16:41.483Z,-3.59
2023-01-20T07:19:08.052Z,-3.21
2023-01-20T07:21:36.819Z,-3.19
2023-01-20T07:24:05.354Z,-3.47
2023-01-20T07:26:36.446Z,-3.34
2023-01-20T07:29:03.010Z,-3.25
2023-01-20T07:31:31.518Z,-3.16
2023-01-20T07:33:58.472Z,-3.17
2023-01-20T07:36:26.806Z,-3.38
2023-01-20T07:38:54.066Z,-3.05
2023-01-20T07:41:24.395Z,-3.03
2023-01-20T07:43:54.385Z,-3.01
2023-01-20T07:46:22.816Z,-2.97
2023-01-20T07:48:50.653Z,-2.97
2023-01-20T07:51:19.530Z,-2.93
2023-01-20T07:53:48.264Z,-2.88
2023-01-20T07:56:22.226Z,-3.02
2023-01-20T07:58:50.577Z,-3.29
2023-01-20T08:01:20.457Z,-2.89
2023-01-20T08:03:51.279Z,-2.87
2023-01-20T08:06:21.057Z,-2.97
2023-01-20T08:08:48.119Z,-3.21
2023-01-20T08:11:23.551Z,-3.27
2023-01-20T08:13:50.285Z,-3.20
2023-01-20T08:16:20.246Z,-3.24
2023-01-20T08:18:47.223Z,-3.30
2023-01-20T08:21:25.852Z,-2.86
2023-01-20T08:23:56.677Z,-2.84
2023-01-20T08:26:25.048Z,-2.76
2023-01-20T08:28:52.207Z,-3.19
2023-01-20T08:31:21.418Z,-2.71
2023-01-20T08:33:51.684Z,-2.76
2023-01-20T08:36:24.285Z,-2.58
2023-01-20T08:38:51.072Z,-3.38
2023-01-20T08:41:26.753Z,-2.27
2023-01-20T08:43:55.078Z,-2.25
2023-01-20T08:46:22.746Z,-2.05
2023-01-20T08:48:50.556Z,-1.97
2023-01-20T08:51:24.916Z,-2.44
2023-01-20T08:53:51.853Z,-1.92
2023-01-20T08:56:21.030Z,-1.86
2023-01-20T08:58:47.920Z,-2.90
2023-01-20T09:01:21.974Z,-1.70
2023-01-20T09:04:03.489Z,-1.81
2023-01-20T09:06:38.349Z,-1.70
2023-01-20T09:09:06.236Z,-1.57
2023-01-20T09:11:32.964Z,-1.52
2023-01-20T09:14:02.044Z,-1.35
2023-01-20T09:16:29.763Z,-1.22
2023-01-20T09:18:57.257Z,-0.49
2023-01-20T09:21:25.841Z,0.04
2023-01-20T09:23:52.694Z,0.57
2023-01-20T09:26:34.925Z,0.27
2023-01-20T09:29:10.319Z,1.12
2023-01-20T09:31:52.530Z,1.49
2023-01-20T09:34:27.288Z,1.90
2023-01-20T09:37:19.886Z,2.10
2023-01-20T09:40:07.172Z,2.34
2023-01-20T09:43:18.093Z,2.59
2023-01-20T09:46:09.042Z,2.74
2023-01-20T09:49:11.360Z,2.87
2023-01-20T09:52:18.798Z,2.66
2023-01-20T09:54:55.568Z,2.63
2023-01-20T09:57:25.061Z,2.42
2023-01-20T10:00:03.725Z,2.00
2023-01-20T10:02:37.888Z,1.87
2023-01-20T10:05:19.580Z,1.77
2023-01-20T10:07:56.729Z,1.11
2023-01-20T10:10:45.850Z,2.19
2023-01-20T10:13:21.476Z,1.92
2023-01-20T10:15:53.577Z,2.10
2023-01-20T10:18:27.015Z,2.32
2023-01-20T10:21:12.960Z,2.52
2023-01-20T10:23:51.165Z,2.16
2023-01-20T10:26:40.916Z,2.10
2023-01-20T10:29:13.441Z,1.58
2023-01-20T10:32:18.030Z,1.84
2023-01-20T10:34:47.326Z,1.10
2023-01-20T10:37:16.003Z,1.22
2023-01-20T10:39:58.305Z,1.31
2023-01-20T10:42:28.500Z,0.89
2023-01-20T10:44:55.348Z,1.05
2023-01-20T10:48:06.837Z,1.21
2023-01-20T10:51:10.521Z,1.13
2023-01-20T10:53:52.100Z,1.01
2023-01-20T10:56:41.290Z,1.12
2023-01-20T10:59:18.885Z,1.11
2023-01-20T11:01:56.262Z,1.06
2023-01-20T11:04:28.084Z,0.57
2023-01-20T11:07:00.145Z,1.18
2023-01-20T11:09:37.539Z,1.06
2023-01-20T11:12:11.201Z,0.65
2023-01-20T11:14:41.358Z,0.94
2023-01-20T11:17:14.676Z,0.84
2023-01-20T11:19:48.144Z,0.69
2023-01-20T11:22:25.988Z,0.67
2023-01-20T11:24:58.947Z,0.73
2023-01-20T11:27:47.941Z,0.66
2023-01-20T11:30:28.468Z,0.92
2023-01-20T11:33:28.656Z,0.91
2023-01-20T11:36:04.811Z,0.87
2023-01-20T11:38:48.529Z,0.77
2023-01-20T11:41:33.154Z,-0.15
2023-01-20T11:44:08.861Z,0.80
2023-01-20T11:46:37.742Z,0.73
2023-01-20T11:49:24.400Z,0.84
2023-01-20T11:51:54.565Z,0.81
2023-01-20T11:54:29.734Z,0.87
2023-01-20T11:57:09.662Z,0.58
2023-01-20T11:59:50.033Z,0.88
2023-01-20T12:02:24.683Z,1.06
2023-01-20T12:05:03.518Z,1.08
2023-01-20T12:07:48.873Z,1.05
2023-01-20T12:10:26.452Z,1.02
2023-01-20T12:13:16.647Z,1.17
2023-01-20T12:15:52.867Z,1.13
2023-01-20T12:18:34.181Z,0.81
2023-01-20T12:21:18.108Z,0.98
2023-01-20T12:23:56.997Z,0.94
2023-01-20T12:26:26.057Z,1.06
2023-01-20T12:29:22.574Z,1.06
2023-01-20T12:31:49.918Z,1.07
2023-01-20T12:34:24.076Z,0.57
2023-01-20T12:36:59.895Z,1.09
2023-01-20T12:39:41.120Z,0.83
2023-01-20T12:42:10.794Z,1.08
2023-01-20T12:44:51.623Z,1.14
2023-01-20T12:47:27.637Z,1.16
2023-01-20T12:50:41.884Z,0.90
2023-01-20T12:53:49.170Z,1.12
2023-01-20T12:56:21.682Z,1.22
2023-01-20T12:59:17.252Z,1.12
2023-01-20T13:02:02.819Z,1.13
2023-01-20T13:04:35.470Z,1.12
2023-01-20T13:07:20.907Z,1.10
2023-01-20T13:10:11.815Z,0.94
2023-01-20T13:12:45.182Z,0.99
2023-01-20T13:15:28.862Z,0.81
2023-01-20T13:18:28.237Z,1.13
2023-01-20T13:20:57.714Z,0.91
2023-01-20T13:23:31.453Z,0.85
2023-01-20T13:26:00.002Z,0.97
2023-01-20T13:28:28.799Z,1.35
2023-01-20T13:31:02.022Z,0.48
2023-01-20T13:33:34.010Z,1.38
2023-01-20T13:36:14.511Z,1.21
2023-01-20T13:38:43.018Z,0.79
2023-01-20T13:41:12.719Z,1.39
2023-01-20T13:43:42.297Z,1.47
2023-01-20T13:46:08.754Z,1.54
2023-01-20T13:48:37.431Z,1.58
2023-01-20T13:51:26.609Z,1.60
2023-01-20T13:53:53.692Z,1.41
2023-01-20T13:56:26.370Z,1.49
2023-01-20T13:58:54.691Z,1.20
2023-01-20T14:01:21.399Z,1.37
2023-01-20T14:04:18.944Z,1.37
2023-01-20T14:06:51.509Z,1.30
2023-01-20T14:09:24.578Z,1.30
2023-01-20T14:11:55.205Z,1.11
2023-01-20T14:14:25.320Z,1.32
2023-01-20T14:16:55.759Z,1.37
2023-01-20T14:19:27.496Z,0.69
2023-01-20T14:21:56.711Z,1.29
2023-01-20T14:24:32.671Z,0.82
2023-01-20T14:27:20.633Z,1.08
2023-01-20T14:29:49.528Z,1.02
2023-01-20T14:32:22.780Z,0.99
2023-01-20T14:34:51.663Z,1.04
2023-01-20T14:37:32.025Z,1.00
2023-01-20T14:40:23.931Z,0.48
2023-01-20T14:43:00.364Z,0.99
2023-01-20T14:45:29.907Z,0.98
2023-01-20T14:47:57.985Z,0.65
2023-01-20T14:50:25.210Z,1.02
2023-01-20T14:52:56.987Z,0.96
2023-01-20T14:55:36.246Z,0.75
2023-01-20T14:58:31.529Z,1.05
2023-01-20T15:01:04.470Z,1.03
2023-01-20T15:03:32.847Z,0.78
2023-01-20T15:06:12.270Z,0.96
2023-01-20T15:08:38.760Z,0.91
2023-01-20T15:11:14.749Z,0.84
2023-01-20T15:13:44.121Z,0.79
2023-01-20T15:16:24.073Z,0.28
2023-01-20T15:19:19.846Z,0.65
2023-01-20T15:21:56.795Z,0.74
2023-01-20T15:24:30.610Z,0.78
2023-01-20T15:27:00.591Z,0.44
2023-01-20T15:29:36.970Z,0.70
2023-01-20T15:32:14.543Z,0.18
2023-01-20T15:34:42.175Z,0.40
2023-01-20T15:37:18.545Z,0.64
2023-01-20T15:39:45.890Z,0.62
2023-01-20T15:42:15.134Z,0.55
2023-01-20T15:44:41.774Z,0.44
2023-01-20T15:47:19.956Z,0.27
2023-01-20T15:49:47.029Z,0.42
2023-01-20T15:52:13.951Z,-0.64
2023-01-20T15:54:40.796Z,0.23
2023-01-20T15:57:17.212Z,-0.09
2023-01-20T15:59:47.567Z,0.20
2023-01-20T16:02:22.189Z,0.13
2023-01-20T16:04:51.194Z,0.07
2023-01-20T16:07:20.494Z,0.10
2023-01-20T16:09:47.379Z,-1.19
2023-01-20T16:12:15.842Z,0.08
2023-01-20T16:14:43.353Z,-0.33
2023-01-20T16:17:23.509Z,-0.31
2023-01-20T16:19:51.323Z,-0.07
2023-01-20T16:22:19.097Z,-1.01
2023-01-20T16:24:49.053Z,-0.33
2023-01-20T16:27:22.460Z,-0.11
2023-01-20T16:29:49.884Z,-0.12
2023-01-20T16:32:18.681Z,-0.45
2023-01-20T16:34:48.080Z,-0.80
2023-01-20T16:37:15.981Z,-0.35
2023-01-20T16:39:43.303Z,-0.77
2023-01-20T16:42:12.373Z,-0.76
2023-01-20T16:44:39.145Z,-0.34
2023-01-20T16:47:08.473Z,-1.39
2023-01-20T16:49:35.550Z,-0.83
2023-01-20T16:52:04.410Z,-0.30
2023-01-20T16:54:34.030Z,-0.50
2023-01-20T16:57:00.660Z,-0.89
2023-01-20T16:59:27.296Z,-0.84
2023-01-20T17:01:55.266Z,-0.40
2023-01-20T17:04:23.143Z,-0.85
2023-01-20T17:06:52.344Z,-0.96
2023-01-20T17:09:18.855Z,-1.63
2023-01-20T17:11:45.375Z,-0.90
2023-01-20T17:14:11.913Z,-1.87
2023-01-20T17:16:39.306Z,-0.48
2023-01-20T17:19:06.418Z,-0.90
2023-01-20T17:21:37.016Z,-0.38
2023-01-20T17:24:05.107Z,-0.93
2023-01-20T17:26:34.674Z,-0.66
2023-01-20T17:29:04.653Z,-0.33
2023-01-20T17:31:35.365Z,-0.37
2023-01-20T17:34:06.849Z,-0.97
2023-01-20T17:36:35.188Z,-0.65
2023-01-20T17:39:05.213Z,-0.48
2023-01-20T17:41:32.371Z,-0.57
2023-01-20T17:43:58.987Z,-0.84
2023-01-20T17:46:28.497Z,-0.32
2023-01-20T17:48:57.296Z,-0.67
2023-01-20T17:51:26.113Z,-0.31
2023-01-20T17:53:56.244Z,-0.55
2023-01-20T17:56:28.183Z,-1.29
2023-01-20T17:58:55.930Z,-0.75
2023-01-20T18:01:31.771Z,-0.38
2023-01-20T18:04:02.911Z,-0.45
2023-01-20T18:06:31.619Z,-0.83
2023-01-20T18:09:00.505Z,-1.05
2023-01-20T18:11:30.618Z,-1.28
2023-01-20T18:13:59.092Z,-0.40
2023-01-20T18:16:33.262Z,-0.39
2023-01-20T18:19:01.227Z,-0.42
2023-01-20T18:21:30.554Z,-0.52
2023-01-20T18:24:00.593Z,-0.86
2023-01-20T18:26:34.779Z,-0.56
2023-01-20T18:29:05.297Z,-0.87
2023-01-20T18:31:36.398Z,-0.53
2023-01-20T18:34:07.036Z,-0.49
2023-01-20T18:36:42.070Z,-0.48
2023-01-20T18:39:16.376Z,-0.51
2023-01-20T18:41:44.951Z,-0.46
2023-01-20T18:44:12.312Z,-1.03
2023-01-20T18:46:41.998Z,-0.56
2023-01-20T18:49:25.105Z,-1.65
2023-01-20T18:52:53.830Z,-1.84
2023-01-20T18:55:08.037Z,-0.49
2023-01-20T18:57:34.654Z,-0.80
2023-01-20T19:00:03.114Z,-0.47
2023-01-20T19:02:30.909Z,-0.69
2023-01-20T19:04:57.480Z,-0.52
2023-01-20T19:07:24.087Z,-0.98
2023-01-20T19:09:51.055Z,-0.88
2023-01-20T19:12:21.826Z,-0.77
2023-01-20T19:14:55.810Z,-0.54
2023-01-20T19:17:22.345Z,-0.54
2023-01-20T19:19:50.156Z,-0.83
2023-01-20T19:22:16.988Z,-1.06
2023-01-20T19:24:43.826Z,-0.77
2023-01-20T19:27:10.465Z,-0.74
2023-01-20T19:29:38.529Z,-0.95
2023-01-20T19:32:05.059Z,-1.12
2023-01-20T19:34:31.541Z,-0.99
2023-01-20T19:37:00.532Z,-0.78
2023-01-20T19:39:27.441Z,-0.51
2023-01-20T19:41:54.059Z,-0.76
2023-01-20T19:44:20.619Z,-1.21
2023-01-20T19:46:47.083Z,-0.51
2023-01-20T19:49:13.634Z,-1.03
2023-01-20T19:51:40.266Z,-0.88
2023-01-20T19:54:06.937Z,-1.62
2023-01-20T19:56:35.038Z,-1.33
2023-01-20T19:59:02.435Z,-0.71
2023-01-20T20:01:36.767Z,-1.20
2023-01-20T20:04:12.768Z,-0.60
2023-01-20T20:06:45.041Z,-0.62
2023-01-20T20:09:23.303Z,-0.65
2023-01-20T20:11:50.967Z,-1.03
2023-01-20T20:14:20.542Z,-0.67
2023-01-20T20:16:47.983Z,-1.19
2023-01-20T20:19:18.722Z,-0.66
2023-01-20T20:21:45.882Z,-0.72
2023-01-20T20:24:14.512Z,-0.69
2023-01-20T20:26:41.757Z,-0.56
2023-01-20T20:29:08.775Z,-0.73
2023-01-20T20:31:37.434Z,-1.62
2023-01-20T20:34:05.757Z,-1.71
2023-01-20T20:36:33.656Z,-1.27
2023-01-20T20:39:02.501Z,-1.73
2023-01-20T20:41:31.550Z,-1.15
2023-01-20T20:44:00.347Z,-0.65
2023-01-20T20:46:28.213Z,-0.75
2023-01-20T20:48:56.772Z,-0.84
2023-01-20T20:51:26.037Z,-0.71
2023-01-20T20:53:55.303Z,-0.58
2023-01-20T20:56:22.424Z,-1.14
2023-01-20T20:59:01.028Z,-0.87
2023-01-20T21:01:30.637Z,-1.29
2023-01-20T21:03:57.987Z,-1.03
2023-01-20T21:06:25.501Z,-0.53
2023-01-20T21:08:52.804Z,-0.55
2023-01-20T21:11:20.561Z,-0.54
2023-01-20T21:13:49.211Z,-0.50
2023-01-20T21:16:19.776Z,-1.67
2023-01-20T21:18:47.142Z,-0.62
2023-01-20T21:21:14.465Z,-0.72
2023-01-20T21:23:41.665Z,-0.54
2023-01-20T21:26:12.365Z,-0.55
2023-01-20T21:28:39.988Z,-0.98
2023-01-20T21:31:10.055Z,-0.71
2023-01-20T21:33:38.865Z,-0.73
2023-01-20T21:36:07.260Z,-0.81
2023-01-20T21:38:33.969Z,-0.95
2023-01-20T21:41:09.859Z,-0.76
2023-01-20T21:43:57.903Z,-0.71
2023-01-20T21:46:26.127Z,-0.69
2023-01-20T21:49:11.112Z,-0.78
2023-01-20T21:51:56.326Z,-0.92
2023-01-20T21:54:31.084Z,-0.74
2023-01-20T21:56:58.898Z,-0.80
2023-01-20T21:59:26.237Z,-0.75
2023-01-20T22:01:53.525Z,-0.85
2023-01-20T22:04:20.173Z,-1.11
2023-01-20T22:06:46.791Z,-1.27
2023-01-20T22:09:13.774Z,-0.77
2023-01-20T22:11:40.516Z,-0.84
2023-01-20T22:14:06.999Z,-0.95
2023-01-20T22:16:33.942Z,-0.97
2023-01-20T22:19:00.555Z,-0.94
2023-01-20T22:21:27.099Z,-0.88
2023-01-20T22:23:53.861Z,-1.85
2023-01-20T22:26:20.673Z,-0.69
2023-01-20T22:28:47.206Z,-0.81
2023-01-20T22:31:23.906Z,-0.93
2023-01-20T22:33:55.077Z,-0.66
2023-01-20T22:36:23.034Z,-0.67
2023-01-20T22:38:51.150Z,-0.73
2023-01-20T22:41:18.964Z,-0.81
2023-01-20T22:43:48.019Z,-0.89
2023-01-20T22:46:16.433Z,-1.17
2023-01-20T22:48:43.073Z,-1.30
2023-01-20T22:51:21.429Z,-0.89
2023-01-20T22:53:48.835Z,-0.86
2023-01-20T22:56:20.873Z,-0.81
2023-01-20T22:58:47.817Z,-1.45
2023-01-20T23:01:15.215Z,-0.75
2023-01-20T23:03:42.220Z,-0.78
2023-01-20T23:06:09.696Z,-0.74
2023-01-20T23:08:36.614Z,-1.03
2023-01-20T23:11:11.968Z,-0.72
2023-01-20T23:13:39.305Z,-0.90
2023-01-20T23:16:10.099Z,-0.71
2023-01-20T23:18:37.074Z,-0.92
2023-01-20T23:21:05.807Z,-0.71
2023-01-20T23:23:33.394Z,-1.42
2023-01-20T23:26:09.822Z,-0.78
2023-01-20T23:28:36.568Z,-1.11
2023-01-20T23:31:06.170Z,-1.06
2023-01-20T23:33:33.102Z,-0.69
2023-01-20T23:36:04.702Z,-1.03
2023-01-20T23:38:31.741Z,-0.76
2023-01-20T23:40:58.504Z,-1.14
2023-01-20T23:43:26.271Z,-1.03
2023-01-20T23:45:56.920Z,-0.71
2023-01-20T23:48:24.072Z,-0.63
2023-01-20T23:50:51.711Z,-0.64
2023-01-20T23:53:18.312Z,-1.77
2023-01-20T23:55:45.309Z,-0.62
2023-01-20T23:58:11.955Z,-0.99
